首页
METAR-TAF:

METAR-TAF

机场 :

埃森博阿国际机场

安卡拉埃森博阿, 土耳其

纬度: 40-07N, 经度: 032-59E, 海拔: 953米

当前天气观测

该预报发布于32分钟前的01:50 UTC
风速1节,风向
温度 12°C
湿度 94%
气压 1013 hPa
能见度10公里或以上
少量云层高于4000英尺

METAR: LTAC 230150Z 01001KT 9999 FEW040 12/11 Q1013 NOSIG RMK RWY21L 01003KT RWY03L 36002KT RWY21R 02002KT

时间: 05:22 (02:22 UTC)

预报

该预报发布于3小时和42分钟前的22:40 UTC
预报有效从23日的 00点(UTC)到 23日的 24点(UTC)
风速2节,风向多变
能见度10公里或以上
散云层高于4000英尺
短暂存在
从 23日的 12点(UTC)到 23日的 16点(UTC)
风速15节,风向北转西北,有时为25节阵风
少量云层高于2500英尺, 积雨云.
多云层高于3000英尺
雷暴, 小雨

TAF: LTAC 222240Z 2300/2324 VRB02KT 9999 SCT040 TEMPO 2312/2316 34015G25KT -TSRA FEW025CB BKN030

超过4000个机场的气象观测和天气预报(METAR&TAF报告)。

可查询的气象台以黄色和红色小点在地图上表示。

将鼠标移到小点上方,可查看气象台名称。

然后点击查看天气观测和预报。

如需切换地图:点击带黑十字的绿色按钮放大地图;点击带横线的绿色按钮缩小地图;或者点击绿色箭头查看邻近地区的地图。


METAR-TAF: